Quinn, South Dakota
Current Conditions -  °F | °C
As of 2:55 AM on Monday 22 Dec 2014 (Local Time) from KPHP Reporting Station
Clear Clear  
Wind Chill: 30°   Ceiling: Unl
Heat Index: 38°   Visibility: 10mi
Dew Point: 34°   Wind: 14mph
Humidity: 86%   Direction: 290°WNW
Pressure: 29.49"   Gusts: NA
Location:  43.99°N, 102.13°W
Report Text: KPHP 220955Z AUTO 29012KT 10SM CLR 03/01 A2949 RMK AO2 SLP993 T00330011
Loading
Personal Weather Stations






























Interactive Weather Map New forecast layout! Learn more

10-Day Weather Forecast

Advertisements
Track Severe Weather on mobile